sensor_id;sensor_type;location;lat;lon;timestamp;P1;durP1;ratioP1;P2;durP2;ratioP2
64252;SDS011;50592;52.958;-7.470;2024-01-07T00:02:14;27.20;;;13.25;;
64252;SDS011;50592;52.958;-7.470;2024-01-07T00:05:04;23.73;;;12.15;;
64252;SDS011;50592;52.958;-7.470;2024-01-07T00:11:38;15.15;;;8.07;;
64252;SDS011;50592;52.958;-7.470;2024-01-07T00:14:07;16.50;;;7.18;;
64252;SDS011;50592;52.958;-7.470;2024-01-07T00:21:27;24.47;;;9.60;;
64252;SDS011;50592;52.958;-7.470;2024-01-07T00:28:25;22.02;;;10.85;;
64252;SDS011;50592;52.958;-7.470;2024-01-07T00:30:50;33.40;;;12.75;;
64252;SDS011;50592;52.958;-7.470;2024-01-07T00:38:56;22.40;;;10.03;;
64252;SDS011;50592;52.958;-7.470;2024-01-07T00:41:22;22.35;;;9.77;;
64252;SDS011;50592;52.958;-7.470;2024-01-07T00:43:50;23.23;;;9.35;;
64252;SDS011;50592;52.958;-7.470;2024-01-07T00:46:16;14.23;;;7.47;;
64252;SDS011;50592;52.958;-7.470;2024-01-07T00:48:42;13.68;;;6.97;;
64252;SDS011;50592;52.958;-7.470;2024-01-07T01:14:26;15.05;;;8.20;;
64252;SDS011;50592;52.958;-7.470;2024-01-07T01:17:00;14.30;;;7.75;;
64252;SDS011;50592;52.958;-7.470;2024-01-07T01:19:31;13.95;;;7.85;;
64252;SDS011;50592;52.958;-7.470;2024-01-07T01:22:19;17.88;;;8.57;;
64252;SDS011;50592;52.958;-7.470;2024-01-07T01:46:04;22.67;;;8.13;;
64252;SDS011;50592;52.958;-7.470;2024-01-07T01:48:43;20.92;;;7.32;;
64252;SDS011;50592;52.958;-7.470;2024-01-07T01:51:33;15.02;;;7.05;;
64252;SDS011;50592;52.958;-7.470;2024-01-07T02:00:05;13.00;;;7.53;;
64252;SDS011;50592;52.958;-7.470;2024-01-07T02:02:32;18.65;;;8.50;;
64252;SDS011;50592;52.958;-7.470;2024-01-07T02:05:19;129.25;;;10.10;;
64252;SDS011;50592;52.958;-7.470;2024-01-07T02:08:05;38.47;;;8.27;;
64252;SDS011;50592;52.958;-7.470;2024-01-07T02:10:44;152.00;;;10.60;;
64252;SDS011;50592;52.958;-7.470;2024-01-07T02:13:10;135.00;;;9.90;;
64252;SDS011;50592;52.958;-7.470;2024-01-07T02:15:36;112.47;;;10.55;;
64252;SDS011;50592;52.958;-7.470;2024-01-07T02:18:02;52.78;;;10.05;;
64252;SDS011;50592;52.958;-7.470;2024-01-07T02:20:29;100.32;;;12.68;;
64252;SDS011;50592;52.958;-7.470;2024-01-07T02:23:14;116.55;;;14.20;;
64252;SDS011;50592;52.958;-7.470;2024-01-07T02:38:32;132.93;;;13.48;;
64252;SDS011;50592;52.958;-7.470;2024-01-07T02:40:59;69.63;;;13.88;;
64252;SDS011;50592;52.958;-7.470;2024-01-07T02:43:33;39.92;;;13.23;;
64252;SDS011;50592;52.958;-7.470;2024-01-07T02:46:13;184.05;;;16.42;;
64252;SDS011;50592;52.958;-7.470;2024-01-07T02:48:42;113.43;;;14.20;;
64252;SDS011;50592;52.958;-7.470;2024-01-07T02:51:23;438.52;;;20.55;;
64252;SDS011;50592;52.958;-7.470;2024-01-07T02:53:56;84.20;;;14.00;;
64252;SDS011;50592;52.958;-7.470;2024-01-07T02:56:27;266.23;;;17.10;;
64252;SDS011;50592;52.958;-7.470;2024-01-07T02:58:56;325.95;;;20.52;;
64252;SDS011;50592;52.958;-7.470;2024-01-07T03:01:50;74.32;;;14.40;;
64252;SDS011;50592;52.958;-7.470;2024-01-07T03:04:21;60.97;;;12.75;;
64252;SDS011;50592;52.958;-7.470;2024-01-07T03:09:52;67.70;;;12.07;;
64252;SDS011;50592;52.958;-7.470;2024-01-07T03:12:18;132.73;;;13.25;;
64252;SDS011;50592;52.958;-7.470;2024-01-07T03:14:44;36.17;;;10.80;;
64252;SDS011;50592;52.958;-7.470;2024-01-07T03:17:10;84.30;;;11.70;;
64252;SDS011;50592;52.958;-7.470;2024-01-07T03:19:39;48.83;;;10.82;;
64252;SDS011;50592;52.958;-7.470;2024-01-07T03:22:05;51.97;;;11.10;;
64252;SDS011;50592;52.958;-7.470;2024-01-07T03:24:32;33.10;;;10.45;;
64252;SDS011;50592;52.958;-7.470;2024-01-07T03:26:58;43.42;;;11.57;;
64252;SDS011;50592;52.958;-7.470;2024-01-07T03:29:24;89.72;;;13.25;;
64252;SDS011;50592;52.958;-7.470;2024-01-07T03:31:50;69.63;;;12.02;;
64252;SDS011;50592;52.958;-7.470;2024-01-07T03:34:16;46.45;;;9.85;;
64252;SDS011;50592;52.958;-7.470;2024-01-07T03:36:42;21.35;;;8.98;;
64252;SDS011;50592;52.958;-7.470;2024-01-07T03:39:08;27.52;;;8.13;;
64252;SDS011;50592;52.958;-7.470;2024-01-07T03:41:33;26.00;;;8.77;;
64252;SDS011;50592;52.958;-7.470;2024-01-07T03:43:59;56.40;;;9.30;;
64252;SDS011;50592;52.958;-7.470;2024-01-07T03:46:25;21.05;;;9.43;;
64252;SDS011;50592;52.958;-7.470;2024-01-07T03:48:51;19.15;;;8.23;;
64252;SDS011;50592;52.958;-7.470;2024-01-07T03:51:17;21.20;;;7.38;;
64252;SDS011;50592;52.958;-7.470;2024-01-07T03:53:42;18.40;;;7.90;;
64252;SDS011;50592;52.958;-7.470;2024-01-07T03:56:08;42.50;;;7.53;;
64252;SDS011;50592;52.958;-7.470;2024-01-07T03:58:34;21.48;;;6.30;;
64252;SDS011;50592;52.958;-7.470;2024-01-07T04:01:00;63.60;;;7.30;;
64252;SDS011;50592;52.958;-7.470;2024-01-07T04:03:26;15.50;;;7.40;;
64252;SDS011;50592;52.958;-7.470;2024-01-07T04:05:52;24.58;;;7.28;;
64252;SDS011;50592;52.958;-7.470;2024-01-07T04:08:18;16.63;;;7.10;;
64252;SDS011;50592;52.958;-7.470;2024-01-07T04:10:44;88.75;;;8.98;;
64252;SDS011;50592;52.958;-7.470;2024-01-07T04:13:09;15.90;;;6.40;;
64252;SDS011;50592;52.958;-7.470;2024-01-07T04:15:35;15.82;;;7.22;;
64252;SDS011;50592;52.958;-7.470;2024-01-07T04:18:04;46.88;;;7.57;;
64252;SDS011;50592;52.958;-7.470;2024-01-07T04:20:30;74.18;;;8.30;;
64252;SDS011;50592;52.958;-7.470;2024-01-07T04:22:57;45.67;;;7.68;;
64252;SDS011;50592;52.958;-7.470;2024-01-07T04:25:23;19.35;;;6.40;;
64252;SDS011;50592;52.958;-7.470;2024-01-07T04:27:49;33.83;;;6.28;;
64252;SDS011;50592;52.958;-7.470;2024-01-07T04:30:15;12.27;;;5.70;;
64252;SDS011;50592;52.958;-7.470;2024-01-07T04:32:41;17.13;;;5.80;;
64252;SDS011;50592;52.958;-7.470;2024-01-07T04:35:07;35.53;;;5.22;;
64252;SDS011;50592;52.958;-7.470;2024-01-07T04:37:35;9.43;;;5.43;;
64252;SDS011;50592;52.958;-7.470;2024-01-07T04:40:01;59.38;;;5.80;;
64252;SDS011;50592;52.958;-7.470;2024-01-07T04:42:27;7.70;;;4.90;;
64252;SDS011;50592;52.958;-7.470;2024-01-07T04:44:53;11.77;;;4.60;;
64252;SDS011;50592;52.958;-7.470;2024-01-07T04:47:37;16.33;;;5.80;;
64252;SDS011;50592;52.958;-7.470;2024-01-07T04:50:03;7.30;;;5.20;;
64252;SDS011;50592;52.958;-7.470;2024-01-07T04:52:29;19.17;;;6.05;;
64252;SDS011;50592;52.958;-7.470;2024-01-07T04:54:55;29.38;;;5.82;;
64252;SDS011;50592;52.958;-7.470;2024-01-07T04:57:21;12.10;;;6.57;;
64252;SDS011;50592;52.958;-7.470;2024-01-07T04:59:48;12.50;;;5.80;;
64252;SDS011;50592;52.958;-7.470;2024-01-07T05:02:15;23.30;;;6.95;;
64252;SDS011;50592;52.958;-7.470;2024-01-07T05:04:41;13.23;;;6.45;;
64252;SDS011;50592;52.958;-7.470;2024-01-07T05:07:07;13.45;;;6.65;;
64252;SDS011;50592;52.958;-7.470;2024-01-07T05:09:33;31.45;;;6.70;;
64252;SDS011;50592;52.958;-7.470;2024-01-07T05:11:59;73.30;;;8.48;;
64252;SDS011;50592;52.958;-7.470;2024-01-07T05:14:26;41.95;;;8.02;;
64252;SDS011;50592;52.958;-7.470;2024-01-07T05:16:55;66.95;;;7.40;;
64252;SDS011;50592;52.958;-7.470;2024-01-07T05:19:21;46.65;;;7.18;;
64252;SDS011;50592;52.958;-7.470;2024-01-07T05:21:47;62.28;;;8.05;;
64252;SDS011;50592;52.958;-7.470;2024-01-07T05:24:13;67.13;;;6.57;;
64252;SDS011;50592;52.958;-7.470;2024-01-07T05:26:39;39.15;;;7.32;;
64252;SDS011;50592;52.958;-7.470;2024-01-07T05:29:06;97.38;;;7.55;;
64252;SDS011;50592;52.958;-7.470;2024-01-07T05:31:32;46.08;;;7.50;;
64252;SDS011;50592;52.958;-7.470;2024-01-07T05:33:58;94.60;;;8.43;;
64252;SDS011;50592;52.958;-7.470;2024-01-07T05:36:24;101.30;;;7.32;;
64252;SDS011;50592;52.958;-7.470;2024-01-07T05:38:49;72.15;;;8.05;;
64252;SDS011;50592;52.958;-7.470;2024-01-07T05:41:15;130.68;;;8.60;;
64252;SDS011;50592;52.958;-7.470;2024-01-07T05:43:41;40.80;;;7.82;;
64252;SDS011;50592;52.958;-7.470;2024-01-07T05:46:07;40.28;;;6.35;;
64252;SDS011;50592;52.958;-7.470;2024-01-07T05:48:42;83.30;;;7.03;;
64252;SDS011;50592;52.958;-7.470;2024-01-07T05:51:09;75.22;;;7.03;;
64252;SDS011;50592;52.958;-7.470;2024-01-07T05:53:35;153.80;;;8.18;;
64252;SDS011;50592;52.958;-7.470;2024-01-07T05:56:01;85.45;;;6.50;;
64252;SDS011;50592;52.958;-7.470;2024-01-07T05:58:28;50.13;;;6.60;;
64252;SDS011;50592;52.958;-7.470;2024-01-07T06:00:54;56.38;;;5.97;;
64252;SDS011;50592;52.958;-7.470;2024-01-07T06:03:20;18.83;;;5.28;;
64252;SDS011;50592;52.958;-7.470;2024-01-07T06:05:46;361.55;;;11.70;;
64252;SDS011;50592;52.958;-7.470;2024-01-07T06:08:11;96.18;;;6.65;;
64252;SDS011;50592;52.958;-7.470;2024-01-07T06:10:38;201.25;;;7.63;;
64252;SDS011;50592;52.958;-7.470;2024-01-07T06:13:04;42.72;;;5.05;;
64252;SDS011;50592;52.958;-7.470;2024-01-07T06:15:30;63.47;;;6.05;;
64252;SDS011;50592;52.958;-7.470;2024-01-07T06:17:56;140.95;;;6.88;;
64252;SDS011;50592;52.958;-7.470;2024-01-07T06:20:22;57.05;;;5.55;;
64252;SDS011;50592;52.958;-7.470;2024-01-07T06:22:48;25.92;;;4.60;;
64252;SDS011;50592;52.958;-7.470;2024-01-07T06:25:14;25.35;;;4.97;;
64252;SDS011;50592;52.958;-7.470;2024-01-07T06:27:40;64.30;;;5.30;;
64252;SDS011;50592;52.958;-7.470;2024-01-07T06:30:07;9.50;;;5.18;;
64252;SDS011;50592;52.958;-7.470;2024-01-07T06:32:33;28.15;;;4.63;;
64252;SDS011;50592;52.958;-7.470;2024-01-07T06:34:59;36.63;;;5.45;;
64252;SDS011;50592;52.958;-7.470;2024-01-07T06:37:25;48.08;;;5.63;;
64252;SDS011;50592;52.958;-7.470;2024-01-07T06:39:54;76.32;;;6.82;;
64252;SDS011;50592;52.958;-7.470;2024-01-07T06:42:20;28.77;;;5.70;;
64252;SDS011;50592;52.958;-7.470;2024-01-07T06:44:46;114.85;;;6.82;;
64252;SDS011;50592;52.958;-7.470;2024-01-07T06:47:12;52.25;;;6.53;;
64252;SDS011;50592;52.958;-7.470;2024-01-07T06:49:37;85.32;;;6.32;;
64252;SDS011;50592;52.958;-7.470;2024-01-07T06:52:04;123.00;;;7.55;;
64252;SDS011;50592;52.958;-7.470;2024-01-07T06:54:30;83.00;;;6.03;;
64252;SDS011;50592;52.958;-7.470;2024-01-07T06:56:56;54.75;;;5.70;;
64252;SDS011;50592;52.958;-7.470;2024-01-07T06:59:22;70.63;;;5.97;;
64252;SDS011;50592;52.958;-7.470;2024-01-07T07:01:48;130.38;;;6.78;;
64252;SDS011;50592;52.958;-7.470;2024-01-07T07:04:13;57.60;;;5.85;;
64252;SDS011;50592;52.958;-7.470;2024-01-07T07:06:39;20.88;;;5.65;;
64252;SDS011;50592;52.958;-7.470;2024-01-07T07:09:05;22.27;;;4.90;;
64252;SDS011;50592;52.958;-7.470;2024-01-07T07:11:31;85.93;;;6.60;;
64252;SDS011;50592;52.958;-7.470;2024-01-07T07:13:57;16.80;;;5.10;;
64252;SDS011;50592;52.958;-7.470;2024-01-07T07:16:23;45.47;;;13.05;;
64252;SDS011;50592;52.958;-7.470;2024-01-07T07:18:49;57.58;;;6.20;;
64252;SDS011;50592;52.958;-7.470;2024-01-07T07:21:14;45.05;;;5.70;;
64252;SDS011;50592;52.958;-7.470;2024-01-07T07:23:40;28.52;;;5.22;;
64252;SDS011;50592;52.958;-7.470;2024-01-07T07:26:06;9.77;;;5.75;;
64252;SDS011;50592;52.958;-7.470;2024-01-07T07:28:33;45.40;;;5.53;;
64252;SDS011;50592;52.958;-7.470;2024-01-07T07:30:59;24.13;;;5.43;;
64252;SDS011;50592;52.958;-7.470;2024-01-07T07:33:25;111.63;;;6.63;;
64252;SDS011;50592;52.958;-7.470;2024-01-07T07:35:51;26.20;;;5.38;;
64252;SDS011;50592;52.958;-7.470;2024-01-07T07:38:17;83.82;;;6.03;;
64252;SDS011;50592;52.958;-7.470;2024-01-07T07:40:42;25.35;;;5.72;;
64252;SDS011;50592;52.958;-7.470;2024-01-07T07:43:09;17.63;;;5.32;;
64252;SDS011;50592;52.958;-7.470;2024-01-07T07:45:35;31.95;;;5.25;;
64252;SDS011;50592;52.958;-7.470;2024-01-07T07:48:01;32.53;;;5.20;;
64252;SDS011;50592;52.958;-7.470;2024-01-07T07:50:27;24.42;;;5.05;;
64252;SDS011;50592;52.958;-7.470;2024-01-07T07:52:53;45.70;;;5.68;;
64252;SDS011;50592;52.958;-7.470;2024-01-07T07:55:19;51.17;;;5.65;;
64252;SDS011;50592;52.958;-7.470;2024-01-07T07:57:45;58.67;;;5.90;;
64252;SDS011;50592;52.958;-7.470;2024-01-07T08:00:11;25.63;;;5.35;;
64252;SDS011;50592;52.958;-7.470;2024-01-07T08:02:38;20.00;;;4.95;;
64252;SDS011;50592;52.958;-7.470;2024-01-07T08:05:06;53.08;;;4.85;;
64252;SDS011;50592;52.958;-7.470;2024-01-07T08:07:32;23.17;;;5.10;;
64252;SDS011;50592;52.958;-7.470;2024-01-07T08:09:58;10.60;;;5.80;;
64252;SDS011;50592;52.958;-7.470;2024-01-07T08:12:23;7.63;;;5.20;;
64252;SDS011;50592;52.958;-7.470;2024-01-07T08:14:49;54.10;;;5.68;;
64252;SDS011;50592;52.958;-7.470;2024-01-07T08:17:15;21.60;;;6.80;;
64252;SDS011;50592;52.958;-7.470;2024-01-07T08:19:42;49.78;;;5.65;;
64252;SDS011;50592;52.958;-7.470;2024-01-07T08:22:08;58.67;;;5.22;;
64252;SDS011;50592;52.958;-7.470;2024-01-07T08:24:34;188.98;;;6.97;;
64252;SDS011;50592;52.958;-7.470;2024-01-07T08:27:01;65.28;;;5.43;;
64252;SDS011;50592;52.958;-7.470;2024-01-07T08:29:28;72.22;;;5.07;;
64252;SDS011;50592;52.958;-7.470;2024-01-07T08:31:54;56.42;;;5.10;;
64252;SDS011;50592;52.958;-7.470;2024-01-07T08:34:20;49.00;;;5.25;;
64252;SDS011;50592;52.958;-7.470;2024-01-07T08:36:46;31.02;;;5.00;;
64252;SDS011;50592;52.958;-7.470;2024-01-07T08:39:14;33.53;;;3.92;;
64252;SDS011;50592;52.958;-7.470;2024-01-07T08:41:40;29.77;;;5.95;;
64252;SDS011;50592;52.958;-7.470;2024-01-07T08:44:05;16.45;;;4.57;;
64252;SDS011;50592;52.958;-7.470;2024-01-07T08:46:33;10.32;;;4.60;;
64252;SDS011;50592;52.958;-7.470;2024-01-07T08:49:00;38.72;;;5.63;;
64252;SDS011;50592;52.958;-7.470;2024-01-07T08:51:27;49.33;;;5.95;;
64252;SDS011;50592;52.958;-7.470;2024-01-07T08:53:55;43.05;;;5.57;;
64252;SDS011;50592;52.958;-7.470;2024-01-07T08:56:22;58.97;;;5.75;;
64252;SDS011;50592;52.958;-7.470;2024-01-07T08:58:48;33.97;;;6.43;;
64252;SDS011;50592;52.958;-7.470;2024-01-07T09:01:14;57.17;;;6.63;;
64252;SDS011;50592;52.958;-7.470;2024-01-07T09:03:40;20.75;;;5.57;;
64252;SDS011;50592;52.958;-7.470;2024-01-07T09:06:07;23.25;;;5.15;;
64252;SDS011;50592;52.958;-7.470;2024-01-07T09:08:33;22.05;;;5.57;;
64252;SDS011;50592;52.958;-7.470;2024-01-07T09:10:59;14.45;;;5.53;;
64252;SDS011;50592;52.958;-7.470;2024-01-07T09:13:27;30.25;;;5.20;;
64252;SDS011;50592;52.958;-7.470;2024-01-07T09:15:52;20.35;;;5.10;;
64252;SDS011;50592;52.958;-7.470;2024-01-07T09:18:18;42.83;;;6.35;;
64252;SDS011;50592;52.958;-7.470;2024-01-07T09:20:44;20.90;;;7.88;;
64252;SDS011;50592;52.958;-7.470;2024-01-07T09:23:10;38.70;;;10.52;;
64252;SDS011;50592;52.958;-7.470;2024-01-07T09:25:35;47.30;;;7.88;;
64252;SDS011;50592;52.958;-7.470;2024-01-07T09:28:01;55.13;;;7.95;;
64252;SDS011;50592;52.958;-7.470;2024-01-07T09:30:28;36.88;;;10.60;;
64252;SDS011;50592;52.958;-7.470;2024-01-07T09:32:54;34.05;;;11.20;;
64252;SDS011;50592;52.958;-7.470;2024-01-07T09:35:19;28.38;;;10.88;;
64252;SDS011;50592;52.958;-7.470;2024-01-07T09:37:45;19.30;;;9.32;;
64252;SDS011;50592;52.958;-7.470;2024-01-07T09:40:11;15.10;;;7.82;;
64252;SDS011;50592;52.958;-7.470;2024-01-07T09:42:37;13.05;;;6.75;;
64252;SDS011;50592;52.958;-7.470;2024-01-07T09:45:03;8.38;;;5.40;;
64252;SDS011;50592;52.958;-7.470;2024-01-07T09:47:32;8.77;;;6.40;;
64252;SDS011;50592;52.958;-7.470;2024-01-07T09:49:58;9.93;;;5.22;;
64252;SDS011;50592;52.958;-7.470;2024-01-07T09:52:24;8.18;;;5.07;;
64252;SDS011;50592;52.958;-7.470;2024-01-07T09:54:57;6.25;;;4.78;;
64252;SDS011;50592;52.958;-7.470;2024-01-07T09:57:24;6.72;;;5.38;;
64252;SDS011;50592;52.958;-7.470;2024-01-07T09:59:50;11.25;;;7.35;;
64252;SDS011;50592;52.958;-7.470;2024-01-07T10:02:16;12.50;;;7.68;;
64252;SDS011;50592;52.958;-7.470;2024-01-07T10:04:42;11.30;;;8.00;;
64252;SDS011;50592;52.958;-7.470;2024-01-07T10:07:09;13.05;;;8.38;;
64252;SDS011;50592;52.958;-7.470;2024-01-07T10:09:34;12.95;;;8.63;;
64252;SDS011;50592;52.958;-7.470;2024-01-07T10:12:00;10.65;;;7.72;;
64252;SDS011;50592;52.958;-7.470;2024-01-07T10:14:26;11.23;;;8.02;;
64252;SDS011;50592;52.958;-7.470;2024-01-07T10:16:52;14.75;;;9.98;;
64252;SDS011;50592;52.958;-7.470;2024-01-07T10:19:22;14.40;;;8.40;;
64252;SDS011;50592;52.958;-7.470;2024-01-07T10:22:09;12.98;;;8.07;;
64252;SDS011;50592;52.958;-7.470;2024-01-07T10:24:38;9.10;;;7.15;;
64252;SDS011;50592;52.958;-7.470;2024-01-07T10:27:05;9.63;;;6.95;;
64252;SDS011;50592;52.958;-7.470;2024-01-07T10:29:32;12.65;;;8.68;;
64252;SDS011;50592;52.958;-7.470;2024-01-07T10:31:58;10.07;;;7.03;;
64252;SDS011;50592;52.958;-7.470;2024-01-07T10:34:28;10.40;;;7.40;;
64252;SDS011;50592;52.958;-7.470;2024-01-07T10:36:56;14.25;;;10.77;;
64252;SDS011;50592;52.958;-7.470;2024-01-07T10:39:24;8.25;;;6.18;;
64252;SDS011;50592;52.958;-7.470;2024-01-07T10:41:51;10.52;;;6.25;;
64252;SDS011;50592;52.958;-7.470;2024-01-07T10:44:26;7.97;;;5.63;;
64252;SDS011;50592;52.958;-7.470;2024-01-07T10:46:55;7.93;;;5.93;;
64252;SDS011;50592;52.958;-7.470;2024-01-07T10:49:25;8.45;;;6.45;;
64252;SDS011;50592;52.958;-7.470;2024-01-07T10:51:57;11.73;;;6.20;;
64252;SDS011;50592;52.958;-7.470;2024-01-07T10:54:34;8.23;;;6.80;;
64252;SDS011;50592;52.958;-7.470;2024-01-07T10:59:52;8.57;;;5.93;;
64252;SDS011;50592;52.958;-7.470;2024-01-07T11:02:19;12.27;;;6.40;;
64252;SDS011;50592;52.958;-7.470;2024-01-07T11:04:56;7.22;;;5.68;;
64252;SDS011;50592;52.958;-7.470;2024-01-07T11:10:05;13.30;;;9.38;;
64252;SDS011;50592;52.958;-7.470;2024-01-07T11:12:39;9.45;;;5.72;;
64252;SDS011;50592;52.958;-7.470;2024-01-07T11:15:04;11.25;;;8.25;;
64252;SDS011;50592;52.958;-7.470;2024-01-07T11:20:12;10.50;;;5.63;;
64252;SDS011;50592;52.958;-7.470;2024-01-07T11:22:44;7.90;;;5.72;;
64252;SDS011;50592;52.958;-7.470;2024-01-07T11:27:56;9.65;;;7.22;;
64252;SDS011;50592;52.958;-7.470;2024-01-07T11:30:23;7.20;;;5.40;;
64252;SDS011;50592;52.958;-7.470;2024-01-07T11:32:55;8.68;;;5.75;;
64252;SDS011;50592;52.958;-7.470;2024-01-07T11:38:19;8.85;;;6.25;;
64252;SDS011;50592;52.958;-7.470;2024-01-07T11:40:45;9.95;;;6.60;;
64252;SDS011;50592;52.958;-7.470;2024-01-07T11:43:14;12.50;;;7.15;;
64252;SDS011;50592;52.958;-7.470;2024-01-07T11:45:40;10.98;;;7.28;;
64252;SDS011;50592;52.958;-7.470;2024-01-07T11:48:06;13.68;;;7.55;;
64252;SDS011;50592;52.958;-7.470;2024-01-07T11:50:31;10.45;;;6.22;;
64252;SDS011;50592;52.958;-7.470;2024-01-07T11:52:57;11.45;;;7.47;;
64252;SDS011;50592;52.958;-7.470;2024-01-07T11:55:24;10.90;;;7.28;;
64252;SDS011;50592;52.958;-7.470;2024-01-07T11:57:50;10.85;;;7.70;;
64252;SDS011;50592;52.958;-7.470;2024-01-07T12:00:17;13.00;;;7.97;;
64252;SDS011;50592;52.958;-7.470;2024-01-07T12:02:45;11.15;;;7.55;;
64252;SDS011;50592;52.958;-7.470;2024-01-07T12:05:11;13.70;;;8.60;;
64252;SDS011;50592;52.958;-7.470;2024-01-07T12:07:38;13.55;;;8.25;;
64252;SDS011;50592;52.958;-7.470;2024-01-07T12:10:07;13.57;;;8.05;;
64252;SDS011;50592;52.958;-7.470;2024-01-07T12:12:38;18.27;;;7.78;;
64252;SDS011;50592;52.958;-7.470;2024-01-07T12:15:06;11.13;;;7.03;;
64252;SDS011;50592;52.958;-7.470;2024-01-07T12:17:33;15.75;;;8.48;;
64252;SDS011;50592;52.958;-7.470;2024-01-07T12:19:59;15.00;;;10.52;;
64252;SDS011;50592;52.958;-7.470;2024-01-07T12:22:29;11.55;;;7.57;;
64252;SDS011;50592;52.958;-7.470;2024-01-07T12:25:07;15.73;;;8.30;;
64252;SDS011;50592;52.958;-7.470;2024-01-07T12:27:34;15.23;;;7.40;;
64252;SDS011;50592;52.958;-7.470;2024-01-07T12:30:01;12.15;;;8.10;;
64252;SDS011;50592;52.958;-7.470;2024-01-07T12:32:32;10.85;;;7.28;;
64252;SDS011;50592;52.958;-7.470;2024-01-07T12:34:58;10.90;;;7.05;;
64252;SDS011;50592;52.958;-7.470;2024-01-07T12:37:27;12.13;;;6.30;;
64252;SDS011;50592;52.958;-7.470;2024-01-07T12:39:53;11.00;;;6.22;;
64252;SDS011;50592;52.958;-7.470;2024-01-07T12:42:19;9.90;;;5.50;;
64252;SDS011;50592;52.958;-7.470;2024-01-07T12:44:49;7.88;;;5.57;;
64252;SDS011;50592;52.958;-7.470;2024-01-07T12:47:16;12.30;;;6.40;;
64252;SDS011;50592;52.958;-7.470;2024-01-07T12:49:42;12.85;;;6.50;;
64252;SDS011;50592;52.958;-7.470;2024-01-07T12:52:07;9.02;;;4.95;;
64252;SDS011;50592;52.958;-7.470;2024-01-07T12:54:34;11.60;;;5.72;;
64252;SDS011;50592;52.958;-7.470;2024-01-07T12:57:00;9.30;;;5.40;;
64252;SDS011;50592;52.958;-7.470;2024-01-07T12:59:26;15.93;;;5.40;;
64252;SDS011;50592;52.958;-7.470;2024-01-07T13:01:52;7.82;;;4.53;;
64252;SDS011;50592;52.958;-7.470;2024-01-07T13:04:18;10.68;;;4.85;;
64252;SDS011;50592;52.958;-7.470;2024-01-07T13:06:47;8.60;;;4.75;;
64252;SDS011;50592;52.958;-7.470;2024-01-07T13:09:12;9.63;;;4.55;;
64252;SDS011;50592;52.958;-7.470;2024-01-07T13:11:39;8.15;;;4.63;;
64252;SDS011;50592;52.958;-7.470;2024-01-07T13:14:05;6.57;;;4.40;;
64252;SDS011;50592;52.958;-7.470;2024-01-07T13:16:30;8.63;;;4.22;;
64252;SDS011;50592;52.958;-7.470;2024-01-07T13:18:57;12.43;;;3.70;;
64252;SDS011;50592;52.958;-7.470;2024-01-07T13:21:22;6.07;;;3.70;;
64252;SDS011;50592;52.958;-7.470;2024-01-07T13:23:48;10.75;;;3.78;;
64252;SDS011;50592;52.958;-7.470;2024-01-07T13:26:14;6.68;;;3.80;;
64252;SDS011;50592;52.958;-7.470;2024-01-07T13:28:41;12.40;;;5.30;;
64252;SDS011;50592;52.958;-7.470;2024-01-07T13:31:08;8.48;;;4.28;;
64252;SDS011;50592;52.958;-7.470;2024-01-07T13:33:34;8.85;;;4.50;;
64252;SDS011;50592;52.958;-7.470;2024-01-07T13:36:00;7.60;;;3.92;;
64252;SDS011;50592;52.958;-7.470;2024-01-07T13:38:28;6.22;;;3.28;;
64252;SDS011;50592;52.958;-7.470;2024-01-07T13:40:54;7.35;;;3.95;;
64252;SDS011;50592;52.958;-7.470;2024-01-07T13:43:20;6.40;;;3.47;;
64252;SDS011;50592;52.958;-7.470;2024-01-07T13:45:45;6.90;;;3.50;;
64252;SDS011;50592;52.958;-7.470;2024-01-07T13:48:11;8.20;;;3.60;;
64252;SDS011;50592;52.958;-7.470;2024-01-07T13:50:37;11.18;;;5.05;;
64252;SDS011;50592;52.958;-7.470;2024-01-07T13:53:03;8.35;;;3.67;;
64252;SDS011;50592;52.958;-7.470;2024-01-07T13:55:28;8.35;;;4.20;;
64252;SDS011;50592;52.958;-7.470;2024-01-07T13:57:54;12.77;;;4.32;;
64252;SDS011;50592;52.958;-7.470;2024-01-07T14:00:21;7.90;;;4.20;;
64252;SDS011;50592;52.958;-7.470;2024-01-07T14:02:46;13.57;;;4.72;;
64252;SDS011;50592;52.958;-7.470;2024-01-07T14:05:12;7.80;;;4.10;;
64252;SDS011;50592;52.958;-7.470;2024-01-07T14:07:38;9.00;;;4.13;;
64252;SDS011;50592;52.958;-7.470;2024-01-07T14:10:06;13.85;;;4.80;;
64252;SDS011;50592;52.958;-7.470;2024-01-07T14:12:32;10.25;;;4.80;;
64252;SDS011;50592;52.958;-7.470;2024-01-07T14:14:58;12.85;;;4.97;;
64252;SDS011;50592;52.958;-7.470;2024-01-07T14:17:27;13.55;;;5.25;;
64252;SDS011;50592;52.958;-7.470;2024-01-07T14:19:52;10.35;;;4.80;;
64252;SDS011;50592;52.958;-7.470;2024-01-07T14:22:21;15.02;;;5.63;;
64252;SDS011;50592;52.958;-7.470;2024-01-07T14:24:48;12.45;;;5.85;;
64252;SDS011;50592;52.958;-7.470;2024-01-07T14:27:15;11.70;;;5.10;;
64252;SDS011;50592;52.958;-7.470;2024-01-07T14:29:41;9.07;;;4.45;;
64252;SDS011;50592;52.958;-7.470;2024-01-07T14:32:07;12.35;;;5.72;;
64252;SDS011;50592;52.958;-7.470;2024-01-07T14:34:33;8.95;;;4.50;;
64252;SDS011;50592;52.958;-7.470;2024-01-07T14:36:59;14.45;;;5.00;;
64252;SDS011;50592;52.958;-7.470;2024-01-07T14:39:31;11.98;;;4.88;;
64252;SDS011;50592;52.958;-7.470;2024-01-07T14:42:05;12.45;;;4.68;;
64252;SDS011;50592;52.958;-7.470;2024-01-07T14:44:31;11.38;;;5.47;;
64252;SDS011;50592;52.958;-7.470;2024-01-07T14:47:00;9.27;;;4.60;;
64252;SDS011;50592;52.958;-7.470;2024-01-07T14:49:26;8.70;;;5.50;;
64252;SDS011;50592;52.958;-7.470;2024-01-07T14:51:52;8.90;;;4.97;;
64252;SDS011;50592;52.958;-7.470;2024-01-07T14:54:18;14.95;;;5.05;;
64252;SDS011;50592;52.958;-7.470;2024-01-07T14:56:44;12.23;;;4.93;;
64252;SDS011;50592;52.958;-7.470;2024-01-07T14:59:10;9.68;;;5.97;;
64252;SDS011;50592;52.958;-7.470;2024-01-07T15:01:39;9.85;;;5.13;;
64252;SDS011;50592;52.958;-7.470;2024-01-07T15:04:07;11.85;;;5.95;;
64252;SDS011;50592;52.958;-7.470;2024-01-07T15:06:38;10.80;;;6.30;;
64252;SDS011;50592;52.958;-7.470;2024-01-07T15:09:09;13.85;;;7.38;;
64252;SDS011;50592;52.958;-7.470;2024-01-07T15:11:48;12.05;;;6.68;;
64252;SDS011;50592;52.958;-7.470;2024-01-07T15:14:17;13.75;;;7.43;;
64252;SDS011;50592;52.958;-7.470;2024-01-07T15:16:43;14.90;;;8.68;;
64252;SDS011;50592;52.958;-7.470;2024-01-07T15:19:11;16.00;;;8.73;;
64252;SDS011;50592;52.958;-7.470;2024-01-07T15:21:37;17.52;;;8.70;;
64252;SDS011;50592;52.958;-7.470;2024-01-07T15:24:03;16.67;;;10.10;;
64252;SDS011;50592;52.958;-7.470;2024-01-07T15:26:29;16.50;;;10.55;;
64252;SDS011;50592;52.958;-7.470;2024-01-07T15:28:55;24.27;;;10.95;;
64252;SDS011;50592;52.958;-7.470;2024-01-07T15:31:25;19.45;;;10.18;;
64252;SDS011;50592;52.958;-7.470;2024-01-07T15:33:51;25.92;;;12.43;;
64252;SDS011;50592;52.958;-7.470;2024-01-07T15:36:20;22.13;;;11.73;;
64252;SDS011;50592;52.958;-7.470;2024-01-07T15:38:46;21.77;;;11.75;;
64252;SDS011;50592;52.958;-7.470;2024-01-07T15:41:12;21.98;;;12.30;;
64252;SDS011;50592;52.958;-7.470;2024-01-07T15:43:45;20.15;;;11.70;;
64252;SDS011;50592;52.958;-7.470;2024-01-07T15:46:11;15.57;;;10.05;;
64252;SDS011;50592;52.958;-7.470;2024-01-07T15:48:37;15.88;;;9.10;;
64252;SDS011;50592;52.958;-7.470;2024-01-07T15:51:07;17.45;;;9.68;;
64252;SDS011;50592;52.958;-7.470;2024-01-07T15:56:58;21.15;;;10.80;;
64252;SDS011;50592;52.958;-7.470;2024-01-07T15:59:24;19.90;;;9.93;;
64252;SDS011;50592;52.958;-7.470;2024-01-07T16:01:51;16.08;;;9.73;;
64252;SDS011;50592;52.958;-7.470;2024-01-07T16:04:23;15.60;;;8.10;;
64252;SDS011;50592;52.958;-7.470;2024-01-07T16:10:03;16.55;;;9.35;;